Terminal Aerodrome Forecast
Issued by NWS

Home | Current Version | Previous Version | Text Only | Print | Product List | Glossary Off
Versions: 1 2 3 4 5 6 7 8 9 10 11 12 13 14 15 16 17 18 19

000
FTUS43 KMPX 212000 AAA
TAFAXN
TAF AMD
KAXN 212053Z 2121/2218 07009KT P6SM BKN009
     FM220200 03006KT P6SM SCT005
     FM220700 36003KT 5SM BR SCT003
     FM220900 00000KT 2SM BR OVC002
     FM221400 34005KT P6SM OVC008=

USA.gov is the U.S. government's official web portal to all federal, state and local government web resources and services.